createdAt,value
2023-02-03T00:01:06.386Z,98033.88
2023-02-03T00:03:34.319Z,98033.69
2023-02-03T00:06:02.822Z,98030.38
2023-02-03T00:08:31.110Z,98032.75
2023-02-03T00:11:02.333Z,98030.25
2023-02-03T00:13:31.651Z,98032.66
2023-02-03T00:16:01.936Z,98029.00
2023-02-03T00:18:29.839Z,98026.75
2023-02-03T00:20:57.745Z,98033.31
2023-02-03T00:23:26.046Z,98029.34
2023-02-03T00:25:54.528Z,98022.09
2023-02-03T00:28:22.539Z,98031.28
2023-02-03T00:30:54.213Z,98029.25
2023-02-03T00:33:22.207Z,98030.25
2023-02-03T00:35:50.359Z,98030.84
2023-02-03T00:38:18.313Z,98028.34
2023-02-03T00:40:53.345Z,98039.94
2023-02-03T00:43:21.418Z,98033.69
2023-02-03T00:45:49.504Z,98030.59
2023-02-03T00:48:18.893Z,98035.47
2023-02-03T00:50:47.557Z,98030.81
2023-02-03T00:53:15.699Z,98038.97
2023-02-03T00:55:44.211Z,98039.22
2023-02-03T00:58:12.440Z,98030.94
2023-02-03T01:00:40.419Z,98037.75
2023-02-03T01:03:08.550Z,98031.84
2023-02-03T01:05:38.226Z,98035.22
2023-02-03T01:08:06.533Z,98024.66
2023-02-03T01:10:34.523Z,98029.56
2023-02-03T01:13:02.435Z,98019.56
2023-02-03T01:15:30.482Z,98029.22
2023-02-03T01:17:58.476Z,98022.63
2023-02-03T01:20:26.753Z,98018.66
2023-02-03T01:22:56.299Z,98019.47
2023-02-03T01:25:24.300Z,98022.97
2023-02-03T01:27:52.629Z,98021.84
2023-02-03T01:30:20.835Z,98019.88
2023-02-03T01:32:48.799Z,98015.47
2023-02-03T01:35:16.792Z,98013.19
2023-02-03T01:37:44.904Z,98019.69
2023-02-03T01:40:14.731Z,98024.00
2023-02-03T01:42:42.683Z,98017.97
2023-02-03T01:45:13.459Z,98018.78
2023-02-03T01:47:44.325Z,98016.50
2023-02-03T01:50:14.929Z,98013.00
2023-02-03T01:52:44.520Z,98015.22
2023-02-03T01:55:14.456Z,98019.31
2023-02-03T01:57:47.903Z,98013.50
2023-02-03T02:00:16.033Z,98011.13
2023-02-03T02:02:45.509Z,98011.47
2023-02-03T02:05:16.472Z,98011.38
2023-02-03T02:07:44.920Z,98010.34
2023-02-03T02:10:13.154Z,98008.06
2023-02-03T02:18:50.342Z,98004.34
2023-02-03T02:21:24.605Z,98009.13
2023-02-03T02:24:01.314Z,98003.44
2023-02-03T02:26:47.232Z,98012.63
2023-02-03T02:29:34.997Z,98007.31
2023-02-03T02:32:17.017Z,98008.91
2023-02-03T02:34:51.076Z,98011.28
2023-02-03T02:37:24.298Z,98003.44
2023-02-03T02:39:58.005Z,98003.19
2023-02-03T02:42:30.399Z,97997.75
2023-02-03T02:45:00.592Z,97998.84
2023-02-03T02:47:30.016Z,98002.59
2023-02-03T02:50:00.667Z,98001.81
2023-02-03T02:52:31.197Z,97994.91
2023-02-03T02:55:01.563Z,97985.59
2023-02-03T02:57:32.897Z,97985.03
2023-02-03T03:00:01.029Z,97999.03
2023-02-03T03:02:35.167Z,97997.06
2023-02-03T03:05:05.155Z,97995.28
2023-02-03T03:07:37.486Z,97999.47
2023-02-03T03:10:09.024Z,97993.56
2023-02-03T03:12:39.041Z,97996.38
2023-02-03T03:15:09.144Z,98006.28
2023-02-03T03:17:41.701Z,97998.31
2023-02-03T03:20:11.576Z,98002.84
2023-02-03T03:22:43.310Z,98005.22
2023-02-03T03:25:14.017Z,98007.63
2023-02-03T03:27:45.849Z,97998.31
2023-02-03T03:30:16.022Z,97999.09
2023-02-03T03:32:46.285Z,97997.38
2023-02-03T03:35:14.314Z,97999.06
2023-02-03T03:37:44.927Z,98005.66
2023-02-03T03:40:16.417Z,98002.56
2023-02-03T03:42:47.517Z,98003.34
2023-02-03T03:45:18.244Z,97997.22
2023-02-03T03:47:51.347Z,97998.00
2023-02-03T03:50:20.583Z,97995.06
2023-02-03T03:52:50.831Z,97998.22
2023-02-03T03:55:20.855Z,97993.00
2023-02-03T03:57:53.293Z,98005.47
2023-02-03T04:00:23.148Z,98005.78
2023-02-03T04:02:54.196Z,98002.16
2023-02-03T04:05:23.015Z,98005.69
2023-02-03T04:07:50.963Z,98005.94
2023-02-03T04:10:26.757Z,98005.53
2023-02-03T04:12:54.884Z,98010.09
2023-02-03T04:15:23.305Z,98004.00
2023-02-03T04:17:52.687Z,98002.84
2023-02-03T04:20:20.583Z,98001.91
2023-02-03T04:22:49.053Z,98003.84
2023-02-03T04:25:17.214Z,98005.44
2023-02-03T04:27:45.354Z,97996.00
2023-02-03T04:30:14.183Z,98002.56
2023-02-03T04:32:42.529Z,98003.84
2023-02-03T04:35:11.976Z,98001.75
2023-02-03T04:37:39.943Z,98008.22
2023-02-03T04:40:08.668Z,98007.91
2023-02-03T04:42:38.986Z,98012.63
2023-02-03T04:45:07.898Z,98009.25
2023-02-03T04:47:36.124Z,98007.34
2023-02-03T04:50:04.314Z,98012.09
2023-02-03T04:52:34.057Z,98006.63
2023-02-03T04:55:02.063Z,98012.44
2023-02-03T04:57:31.018Z,98011.41
2023-02-03T04:59:58.968Z,98013.91
2023-02-03T05:02:26.890Z,98007.97
2023-02-03T05:04:55.319Z,97999.66
2023-02-03T05:07:23.351Z,98006.03
2023-02-03T05:09:52.710Z,98011.00
2023-02-03T05:12:20.990Z,98014.09
2023-02-03T05:14:49.218Z,98008.84
2023-02-03T05:17:17.194Z,98004.66
2023-02-03T05:19:45.279Z,98005.78
2023-02-03T05:25:22.479Z,98014.78
2023-02-03T05:27:52.288Z,98011.16
2023-02-03T05:30:20.580Z,98009.19
2023-02-03T05:32:49.948Z,98011.72
2023-02-03T05:35:17.938Z,98008.16
2023-02-03T05:37:46.730Z,98007.81
2023-02-03T05:40:32.238Z,98016.34
2023-02-03T05:43:01.842Z,98014.03
2023-02-03T05:45:30.003Z,98025.63
2023-02-03T05:47:58.760Z,98019.56
2023-02-03T05:50:28.036Z,98016.75
2023-02-03T05:52:56.476Z,98020.59
2023-02-03T05:55:24.720Z,98018.53
2023-02-03T05:57:52.668Z,98020.59
2023-02-03T06:00:22.922Z,98016.88
2023-02-03T06:02:52.839Z,98017.31
2023-02-03T06:05:21.004Z,98026.03
2023-02-03T06:07:48.923Z,98022.03
2023-02-03T06:10:17.761Z,98026.03
2023-02-03T06:12:45.775Z,98024.59
2023-02-03T06:15:13.836Z,98022.59
2023-02-03T06:17:45.352Z,98025.88
2023-02-03T06:20:14.125Z,98025.72
2023-02-03T06:22:42.720Z,98028.31
2023-02-03T06:25:13.038Z,98036.03
2023-02-03T06:27:41.454Z,98020.94
2023-02-03T06:30:10.259Z,98030.63
2023-02-03T06:32:38.323Z,98030.63
2023-02-03T06:35:08.190Z,98023.09
2023-02-03T06:37:37.753Z,98026.34
2023-02-03T06:40:06.355Z,98034.72
2023-02-03T06:42:34.877Z,98035.06
2023-02-03T06:45:03.219Z,98040.06
2023-02-03T06:47:31.612Z,98043.78
2023-02-03T06:49:59.657Z,98043.22
2023-02-03T06:52:29.180Z,98040.75
2023-02-03T06:54:57.281Z,98031.69
2023-02-03T06:57:25.370Z,98029.06
2023-02-03T06:59:53.488Z,98028.69
2023-02-03T07:02:21.721Z,98022.47
2023-02-03T07:04:50.026Z,98037.22
2023-02-03T07:07:18.233Z,98025.75
2023-02-03T07:09:47.816Z,98029.97
2023-02-03T07:12:15.850Z,98036.41
2023-02-03T07:14:44.067Z,98030.41
2023-02-03T07:17:12.073Z,98035.38
2023-02-03T07:19:39.993Z,98030.44
2023-02-03T07:22:08.137Z,98031.69
2023-02-03T07:24:36.128Z,98032.59
2023-02-03T07:27:05.744Z,98030.59
2023-02-03T07:29:33.726Z,98031.72
2023-02-03T07:32:02.946Z,98029.31
2023-02-03T07:34:31.149Z,98030.66
2023-02-03T07:36:59.341Z,98033.81
2023-02-03T07:39:27.567Z,98044.25
2023-02-03T07:41:55.616Z,98035.72
2023-02-03T07:44:25.063Z,98026.94
2023-02-03T07:46:53.198Z,98032.06
2023-02-03T07:49:21.145Z,98028.84
2023-02-03T07:51:49.314Z,98034.66
2023-02-03T07:54:17.222Z,98034.19
2023-02-03T07:56:45.337Z,98020.34
2023-02-03T07:59:14.010Z,98026.97
2023-02-03T08:01:43.647Z,98020.22
2023-02-03T08:04:16.014Z,98024.13
2023-02-03T08:06:44.315Z,98019.16
2023-02-03T08:09:12.345Z,98024.16
2023-02-03T08:11:40.490Z,98016.59
2023-02-03T08:14:08.582Z,98019.25
2023-02-03T08:16:36.855Z,98015.72
2023-02-03T08:19:06.481Z,98014.81
2023-02-03T08:21:34.458Z,98014.53
2023-02-03T08:24:02.647Z,98007.66
2023-02-03T08:26:30.792Z,98010.94
2023-02-03T08:32:17.263Z,98006.50
2023-02-03T08:34:47.106Z,97999.91
2023-02-03T08:37:16.694Z,98007.97
2023-02-03T08:39:45.263Z,97997.94
2023-02-03T08:42:13.377Z,98021.44
2023-02-03T08:44:41.590Z,98012.44
2023-02-03T08:47:09.922Z,98012.34
2023-02-03T08:49:39.665Z,98003.84
2023-02-03T08:52:10.478Z,98014.13
2023-02-03T08:54:38.736Z,98007.38
2023-02-03T08:57:06.817Z,98004.81
2023-02-03T08:59:36.297Z,98009.06
2023-02-03T09:02:04.866Z,98013.13
2023-02-03T09:04:34.023Z,98008.72
2023-02-03T09:07:04.529Z,98009.19
2023-02-03T09:09:34.606Z,98005.94
2023-02-03T09:12:05.547Z,98012.50
2023-02-03T09:14:34.407Z,97999.63
2023-02-03T09:17:03.443Z,98001.53
2023-02-03T09:19:31.381Z,98006.00
2023-02-03T09:21:59.345Z,98005.91
2023-02-03T09:24:27.712Z,98002.28
2023-02-03T09:26:57.365Z,98000.03
2023-02-03T09:29:25.589Z,97998.50
2023-02-03T09:31:54.190Z,98011.00
2023-02-03T09:34:22.431Z,98003.97
2023-02-03T09:36:51.481Z,97998.34
2023-02-03T09:39:19.744Z,98002.69
2023-02-03T09:42:02.526Z,98004.09
2023-02-03T09:44:37.688Z,98003.06
2023-02-03T09:47:11.971Z,97990.63
2023-02-03T09:49:41.671Z,97992.78
2023-02-03T09:52:13.265Z,97998.34
2023-02-03T09:54:44.887Z,97998.06
2023-02-03T09:57:17.181Z,98001.75
2023-02-03T09:59:46.528Z,98002.84
2023-02-03T10:02:34.000Z,98000.75
2023-02-03T10:05:07.784Z,98001.81
2023-02-03T10:07:43.718Z,98004.53
2023-02-03T10:10:15.955Z,98006.94
2023-02-03T10:12:48.562Z,98003.53
2023-02-03T10:15:31.487Z,98008.09
2023-02-03T10:18:03.815Z,97995.19
2023-02-03T10:20:37.151Z,97998.22
2023-02-03T10:23:08.299Z,97997.75
2023-02-03T10:25:42.276Z,97997.25
2023-02-03T10:28:16.411Z,97993.88
2023-02-03T10:30:48.158Z,97999.63
2023-02-03T10:33:18.351Z,97989.06
2023-02-03T10:35:50.557Z,97992.59
2023-02-03T10:38:24.171Z,97993.81
2023-02-03T10:40:53.080Z,97993.81
2023-02-03T10:43:38.854Z,97983.53
2023-02-03T10:46:06.924Z,97986.16
2023-02-03T10:48:36.960Z,97990.84
2023-02-03T10:51:05.647Z,97983.31
2023-02-03T10:53:34.760Z,97991.19
2023-02-03T10:56:04.424Z,97990.03
2023-02-03T10:58:34.693Z,97983.75
2023-02-03T11:01:07.667Z,97984.78
2023-02-03T11:03:38.263Z,97975.81
2023-02-03T11:06:09.485Z,97970.31
2023-02-03T11:08:38.878Z,97973.13
2023-02-03T11:11:08.295Z,97977.13
2023-02-03T11:13:36.809Z,97965.81
2023-02-03T11:16:06.452Z,97967.94
2023-02-03T11:18:49.473Z,97965.66
2023-02-03T11:21:20.708Z,97973.03
2023-02-03T11:23:54.660Z,97961.31
2023-02-03T11:26:24.563Z,97964.00
2023-02-03T11:28:54.385Z,97966.72
2023-02-03T11:34:19.032Z,97967.09
2023-02-03T11:36:48.509Z,97958.44
2023-02-03T11:39:26.684Z,97963.94
2023-02-03T11:41:55.238Z,97968.94
2023-02-03T11:44:26.106Z,97960.31
2023-02-03T11:46:56.606Z,97961.06
2023-02-03T11:52:26.003Z,97969.25
2023-02-03T11:54:57.201Z,97963.97
2023-02-03T11:57:32.284Z,97958.97
2023-02-03T12:00:11.238Z,97959.22
2023-02-03T12:02:53.495Z,97957.38
2023-02-03T12:05:34.340Z,97957.13
2023-02-03T12:08:09.818Z,97956.31
2023-02-03T12:10:43.754Z,97957.34
2023-02-03T12:13:20.362Z,97951.53
2023-02-03T12:15:55.802Z,97951.19
2023-02-03T12:18:34.733Z,97955.09
2023-02-03T12:21:08.934Z,97944.06
2023-02-03T12:23:45.383Z,97944.34
2023-02-03T12:26:19.798Z,97940.63
2023-02-03T12:28:51.609Z,97947.91
2023-02-03T12:31:25.045Z,97942.44
2023-02-03T12:33:56.573Z,97937.94
2023-02-03T12:36:28.273Z,97940.31
2023-02-03T12:39:00.614Z,97950.53
2023-02-03T12:41:31.393Z,97943.75
2023-02-03T12:44:02.447Z,97944.75
2023-02-03T12:46:32.512Z,97948.69
2023-02-03T12:49:04.848Z,97952.81
2023-02-03T12:51:37.312Z,97946.22
2023-02-03T12:54:12.686Z,97942.53
2023-02-03T12:56:43.231Z,97947.16
2023-02-03T12:59:16.218Z,97943.44
2023-02-03T13:01:46.794Z,97950.81
2023-02-03T13:04:20.319Z,97945.03
2023-02-03T13:06:52.224Z,97941.31
2023-02-03T13:09:26.837Z,97942.06
2023-02-03T13:11:57.646Z,97951.47
2023-02-03T13:14:29.959Z,97941.63
2023-02-03T13:17:01.601Z,97941.94
2023-02-03T13:19:35.214Z,97939.31
2023-02-03T13:22:03.436Z,97945.28
2023-02-03T13:24:33.048Z,97944.44
2023-02-03T13:27:11.517Z,97950.41
2023-02-03T13:29:50.939Z,97948.16
2023-02-03T13:32:29.927Z,97950.19
2023-02-03T13:35:21.569Z,97951.84
2023-02-03T13:38:07.396Z,97948.63
2023-02-03T13:40:42.629Z,97945.28
2023-02-03T13:43:17.395Z,97949.19
2023-02-03T13:45:50.919Z,97943.97
2023-02-03T13:48:20.746Z,97948.94
2023-02-03T13:50:49.685Z,97944.50
2023-02-03T13:53:19.177Z,97947.06
2023-02-03T13:55:56.643Z,97952.66
2023-02-03T13:58:26.673Z,97952.06
2023-02-03T14:01:03.702Z,97953.03
2023-02-03T14:03:47.797Z,97955.00
2023-02-03T14:06:34.401Z,97951.59
2023-02-03T14:09:02.501Z,97959.94
2023-02-03T14:11:48.335Z,97950.28
2023-02-03T14:14:34.966Z,97956.75
2023-02-03T14:17:03.196Z,97947.56
2023-02-03T14:19:58.359Z,97965.91
2023-02-03T14:22:27.687Z,97958.13
2023-02-03T14:24:57.727Z,97959.38
2023-02-03T14:27:30.099Z,97951.78
2023-02-03T14:32:52.203Z,97951.31
2023-02-03T14:35:21.450Z,97953.94
2023-02-03T14:37:54.404Z,97948.69
2023-02-03T14:40:30.534Z,97951.00
2023-02-03T14:43:12.237Z,97954.91
2023-02-03T14:45:51.857Z,97954.19
2023-02-03T14:48:36.240Z,97955.84
2023-02-03T14:51:09.518Z,97955.06
2023-02-03T14:53:46.148Z,97955.53
2023-02-03T14:56:19.119Z,97953.41
2023-02-03T14:58:51.658Z,97953.47
2023-02-03T15:01:29.142Z,97962.06
2023-02-03T15:04:21.879Z,97958.63
2023-02-03T15:06:50.825Z,97959.75
2023-02-03T15:09:23.458Z,97958.16
2023-02-03T15:11:51.615Z,97959.19
2023-02-03T15:14:25.115Z,97956.56
2023-02-03T15:16:57.689Z,97953.47
2023-02-03T15:19:27.128Z,97957.69
2023-02-03T15:21:55.259Z,97949.59
2023-02-03T15:24:26.018Z,97948.41
2023-02-03T15:26:54.875Z,97961.72
2023-02-03T15:29:26.583Z,97962.44
2023-02-03T15:31:58.631Z,97953.72
2023-02-03T15:34:30.031Z,97954.13
2023-02-03T15:37:00.912Z,97945.56
2023-02-03T15:39:37.575Z,97962.13
2023-02-03T15:42:08.635Z,97965.78
2023-02-03T15:44:41.470Z,97972.19
2023-02-03T15:47:20.355Z,97965.91
2023-02-03T15:49:52.079Z,97967.03
2023-02-03T15:52:22.112Z,97971.16
2023-02-03T15:54:54.863Z,97973.53
2023-02-03T15:57:24.722Z,97975.91
2023-02-03T15:59:55.072Z,97979.09
2023-02-03T16:02:23.773Z,97986.38
2023-02-03T16:04:52.046Z,97986.13
2023-02-03T16:07:22.692Z,97976.16
2023-02-03T16:09:53.750Z,97991.06
2023-02-03T16:12:24.754Z,97987.72
2023-02-03T16:14:53.151Z,97985.03
2023-02-03T16:17:27.680Z,97992.63
2023-02-03T16:20:16.947Z,97982.44
2023-02-03T16:22:45.957Z,97985.81
2023-02-03T16:25:14.514Z,97989.47
2023-02-03T16:27:47.168Z,97985.25
2023-02-03T16:30:42.793Z,97988.44
2023-02-03T16:33:38.710Z,97984.00
2023-02-03T16:36:29.776Z,97996.84
2023-02-03T16:39:16.422Z,97990.19
2023-02-03T16:42:01.810Z,97998.91
2023-02-03T16:44:47.247Z,97998.44
2023-02-03T16:47:40.782Z,97992.16
2023-02-03T16:50:38.241Z,97991.13
2023-02-03T16:53:07.443Z,97994.94
2023-02-03T16:55:35.618Z,97999.06
2023-02-03T16:58:03.557Z,97993.25
2023-02-03T17:00:32.102Z,98004.44
2023-02-03T17:03:00.224Z,98003.72
2023-02-03T17:05:30.052Z,98002.53
2023-02-03T17:07:58.253Z,98004.34
2023-02-03T17:10:26.541Z,98018.53
2023-02-03T17:12:54.522Z,98016.22
2023-02-03T17:15:22.449Z,98010.00
2023-02-03T17:17:50.391Z,98012.00
2023-02-03T17:20:18.640Z,98007.41
2023-02-03T17:22:51.740Z,98015.75
2023-02-03T17:25:19.811Z,98019.94
2023-02-03T17:30:56.823Z,98021.13
2023-02-03T17:33:25.013Z,98030.88
2023-02-03T17:36:01.156Z,98028.00
2023-02-03T17:38:31.636Z,98022.31
2023-02-03T17:54:52.232Z,98030.88
2023-02-03T17:57:20.404Z,98032.22
2023-02-03T17:59:48.891Z,98034.59
2023-02-03T18:02:36.081Z,98035.63
2023-02-03T18:05:07.478Z,98044.00
2023-02-03T18:08:06.027Z,98041.66
2023-02-03T18:10:56.441Z,98042.28
2023-02-03T18:13:26.274Z,98040.72
2023-02-03T18:15:56.982Z,98047.75
2023-02-03T18:18:26.142Z,98045.47
2023-02-03T18:20:54.351Z,98050.22
2023-02-03T18:23:22.404Z,98045.47
2023-02-03T18:25:54.147Z,98046.25
2023-02-03T18:28:24.083Z,98048.56
2023-02-03T18:30:52.249Z,98056.72
2023-02-03T18:33:20.171Z,98064.88
2023-02-03T18:35:50.816Z,98059.56
2023-02-03T18:38:18.814Z,98060.06
2023-02-03T18:40:46.827Z,98061.16
2023-02-03T18:43:14.789Z,98067.50
2023-02-03T18:45:44.415Z,98072.72
2023-02-03T18:48:12.378Z,98071.00
2023-02-03T18:50:42.398Z,98076.56
2023-02-03T18:53:11.296Z,98064.03
2023-02-03T18:55:41.714Z,98076.09
2023-02-03T18:58:09.796Z,98069.25
2023-02-03T19:00:37.814Z,98069.56
2023-02-03T19:03:07.945Z,98075.25
2023-02-03T19:05:35.924Z,98078.78
2023-02-03T19:08:04.114Z,98081.16
2023-02-03T19:10:32.628Z,98074.63
2023-02-03T19:13:03.498Z,98075.00
2023-02-03T19:15:31.531Z,98075.88
2023-02-03T19:17:59.632Z,98087.44
2023-02-03T19:20:29.283Z,98073.88
2023-02-03T19:22:57.344Z,98081.16
2023-02-03T19:25:25.545Z,98075.66
2023-02-03T19:27:53.465Z,98084.19
2023-02-03T19:30:22.244Z,98083.38
2023-02-03T19:32:52.090Z,98082.34
2023-02-03T19:35:20.099Z,98080.53
2023-02-03T19:37:49.589Z,98087.13
2023-02-03T19:40:17.604Z,98093.06
2023-02-03T19:42:45.724Z,98084.88
2023-02-03T19:45:13.782Z,98082.88
2023-02-03T19:47:41.851Z,98094.47
2023-02-03T19:50:10.285Z,98094.13
2023-02-03T19:52:38.351Z,98097.06
2023-02-03T19:55:08.081Z,98097.63
2023-02-03T19:57:36.040Z,98093.97
2023-02-03T20:00:04.411Z,98100.47
2023-02-03T20:02:32.368Z,98102.53
2023-02-03T20:05:00.667Z,98104.13
2023-02-03T20:07:35.611Z,98104.13
2023-02-03T20:10:06.562Z,98113.94
2023-02-03T20:12:36.084Z,98114.38
2023-02-03T20:15:04.134Z,98114.06
2023-02-03T20:17:32.052Z,98111.66
2023-02-03T20:20:00.202Z,98107.56
2023-02-03T20:22:28.299Z,98107.78
2023-02-03T20:24:56.227Z,98119.06
2023-02-03T20:27:24.317Z,98115.75
2023-02-03T20:32:52.131Z,98122.13
2023-02-03T20:35:20.579Z,98126.09
2023-02-03T20:37:48.506Z,98130.22
2023-02-03T20:40:18.434Z,98134.88
2023-02-03T20:42:47.532Z,98136.59
2023-02-03T20:45:15.945Z,98142.03
2023-02-03T20:47:44.044Z,98140.25
2023-02-03T20:50:17.099Z,98139.72
2023-02-03T20:52:45.342Z,98143.09
2023-02-03T20:55:14.370Z,98148.44
2023-02-03T20:57:42.646Z,98149.59
2023-02-03T21:00:17.974Z,98146.53
2023-02-03T21:03:17.943Z,98153.34
2023-02-03T21:05:47.444Z,98148.44
2023-02-03T21:08:15.672Z,98157.88
2023-02-03T21:10:49.827Z,98153.47
2023-02-03T21:13:20.795Z,98154.56
2023-02-03T21:15:49.783Z,98160.81
2023-02-03T21:18:29.756Z,98157.31
2023-02-03T21:20:59.173Z,98165.03
2023-02-03T21:23:29.279Z,98167.06
2023-02-03T21:25:57.248Z,98173.00
2023-02-03T21:28:26.760Z,98174.56
2023-02-03T21:30:54.951Z,98171.03
2023-02-03T21:33:30.247Z,98168.53
2023-02-03T21:35:59.832Z,98167.84
2023-02-03T21:38:31.010Z,98172.63
2023-02-03T21:40:59.661Z,98168.41
2023-02-03T21:43:27.611Z,98171.59
2023-02-03T21:45:55.688Z,98165.00
2023-02-03T21:48:32.210Z,98165.22
2023-02-03T21:51:05.964Z,98172.16
2023-02-03T21:53:35.894Z,98180.25
2023-02-03T21:56:15.770Z,98182.63
2023-02-03T21:58:44.826Z,98181.28
2023-02-03T22:01:16.781Z,98185.25
2023-02-03T22:03:47.697Z,98183.41
2023-02-03T22:06:27.939Z,98186.72
2023-02-03T22:08:56.658Z,98184.88
2023-02-03T22:11:25.412Z,98188.41
2023-02-03T22:13:53.488Z,98182.38
2023-02-03T22:16:21.697Z,98182.13
2023-02-03T22:18:50.267Z,98182.94
2023-02-03T22:21:18.395Z,98184.88
2023-02-03T22:23:48.089Z,98184.75
2023-02-03T22:26:16.650Z,98185.56
2023-02-03T22:28:44.716Z,98186.13
2023-02-03T22:31:13.269Z,98184.09
2023-02-03T22:33:42.090Z,98186.91
2023-02-03T22:36:10.833Z,98191.38
2023-02-03T22:38:39.927Z,98189.53
2023-02-03T22:41:11.983Z,98179.63
2023-02-03T22:43:40.608Z,98188.84
2023-02-03T22:46:09.149Z,98192.81
2023-02-03T22:48:37.170Z,98192.81
2023-02-03T22:51:05.382Z,98194.41
2023-02-03T22:53:34.921Z,98198.38
2023-02-03T22:56:02.922Z,98199.16
2023-02-03T22:58:32.317Z,98203.63
2023-02-03T23:01:00.406Z,98202.13
2023-02-03T23:03:32.178Z,98198.25
2023-02-03T23:06:00.347Z,98200.63
2023-02-03T23:08:28.435Z,98210.31
2023-02-03T23:10:57.118Z,98207.94
2023-02-03T23:13:25.094Z,98210.31
2023-02-03T23:15:54.514Z,98205.19
2023-02-03T23:18:22.577Z,98216.56
2023-02-03T23:20:50.722Z,98213.94
2023-02-03T23:23:18.641Z,98212.91
2023-02-03T23:25:46.669Z,98211.91
2023-02-03T23:28:14.608Z,98220.31
2023-02-03T23:30:42.779Z,98220.66
2023-02-03T23:33:12.287Z,98223.25
2023-02-03T23:35:45.720Z,98220.66
2023-02-03T23:38:13.965Z,98214.41
2023-02-03T23:40:41.805Z,98214.41
2023-02-03T23:43:34.722Z,98215.44
2023-02-03T23:46:02.720Z,98224.84
2023-02-03T23:48:32.247Z,98217.59
2023-02-03T23:51:00.221Z,98222.94
2023-02-03T23:53:28.635Z,98226.31
2023-02-03T23:55:56.652Z,98228.72
2023-02-03T23:58:24.771Z,98233.06
